Time;durP1;ratioP1;P1;durP2;ratioP2;P2;SDS_P1;SDS_P2;PMS_P1;PMS_P2;Temp;Humidity;BMP_temperature;BMP_pressure;BME280_temperature;BME280_humidity;BME280_pressure;Samples;Min_cycle;Max_cycle;Signal;HPM_P1;HPM_P2
2024/01/11 00:00:29;;;;;;;22.00;11.57;;;-7.50;99.90;;;;;;4772606;30;20196;-79
2024/01/11 00:02:54;;;;;;;25.63;11.90;;;-7.60;99.90;;;;;;4756642;30;20205;-82
2024/01/11 00:05:21;;;;;;;20.73;11.00;;;-7.60;99.90;;;;;;4772927;30;20230;-81
2024/01/11 00:07:48;;;;;;;20.27;10.67;;;-7.60;99.90;;;;;;4756611;30;20201;-82
2024/01/11 00:10:14;;;;;;;22.30;10.47;;;-7.60;99.90;;;;;;4772782;30;20210;-81
2024/01/11 00:12:39;;;;;;;22.20;11.63;;;-7.60;99.90;;;;;;4772493;30;20189;-82
2024/01/11 00:15:06;;;;;;;22.23;10.70;;;-7.50;99.90;;;;;;4772674;30;20278;-81
2024/01/11 00:17:31;;;;;;;23.47;10.57;;;-7.60;99.90;;;;;;4772771;30;20291;-82
2024/01/11 00:19:57;;;;;;;23.43;11.33;;;-7.60;99.90;;;;;;4772555;30;20270;-81
2024/01/11 00:22:23;;;;;;;21.43;11.17;;;-7.60;99.90;;;;;;4767399;30;20305;-80
2024/01/11 00:24:49;;;;;;;19.73;10.10;;;-7.70;99.90;;;;;;4771890;30;20282;-81
2024/01/11 00:27:15;;;;;;;20.87;10.40;;;-7.70;99.90;;;;;;4756302;30;20217;-81
2024/01/11 00:29:41;;;;;;;22.33;10.13;;;-7.60;99.90;;;;;;4772491;30;20276;-82
2024/01/11 00:32:06;;;;;;;21.53;10.93;;;-7.60;99.90;;;;;;4772752;30;20274;-81
2024/01/11 00:34:32;;;;;;;23.33;11.43;;;-7.70;99.90;;;;;;4772222;30;20195;-81
2024/01/11 00:36:58;;;;;;;18.63;10.03;;;-7.70;99.90;;;;;;4771910;30;20198;-80
2024/01/11 00:39:24;;;;;;;22.57;11.30;;;-7.70;99.90;;;;;;4762495;30;20716;-81
2024/01/11 00:41:51;;;;;;;25.47;10.83;;;-7.70;99.90;;;;;;4751904;30;20198;-81
2024/01/11 00:44:17;;;;;;;23.33;10.63;;;-7.70;99.90;;;;;;4772026;30;20216;-81
2024/01/11 00:46:42;;;;;;;22.93;11.03;;;-7.70;99.90;;;;;;4756146;30;20195;-81
2024/01/11 00:49:08;;;;;;;20.67;11.20;;;-7.70;99.90;;;;;;4772300;30;20285;-81
2024/01/11 00:51:34;;;;;;;23.43;11.13;;;-7.70;99.90;;;;;;4751859;30;20570;-81
2024/01/11 00:54:00;;;;;;;19.57;10.80;;;-7.80;99.90;;;;;;4754676;30;20197;-81
2024/01/11 00:56:26;;;;;;;24.50;11.97;;;-7.80;99.90;;;;;;4755916;30;20189;-81
2024/01/11 00:58:52;;;;;;;23.33;11.10;;;-7.80;99.90;;;;;;4755787;30;20284;-82
2024/01/11 01:01:17;;;;;;;23.07;10.93;;;-7.80;99.90;;;;;;4771980;30;20273;-81
2024/01/11 01:03:43;;;;;;;22.77;10.80;;;-7.80;99.90;;;;;;4771919;30;20275;-82
2024/01/11 01:06:09;;;;;;;21.67;10.87;;;-7.80;99.90;;;;;;4767957;30;20313;-81
2024/01/11 01:08:35;;;;;;;24.93;11.37;;;-7.90;99.90;;;;;;4751472;30;20187;-82
2024/01/11 01:11:01;;;;;;;24.67;11.13;;;-7.90;99.90;;;;;;4761654;30;20238;-81
2024/01/11 01:13:26;;;;;;;22.73;11.60;;;-7.90;99.90;;;;;;4750960;30;20188;-81
2024/01/11 01:15:52;;;;;;;21.37;10.70;;;-7.90;99.90;;;;;;4755452;30;20198;-82
2024/01/11 01:18:18;;;;;;;24.57;11.43;;;-8.00;99.90;;;;;;4755649;30;20534;-81
2024/01/11 01:20:44;;;;;;;23.77;11.60;;;-7.90;99.90;;;;;;4755370;30;20203;-80
2024/01/11 01:23:09;;;;;;;25.73;11.23;;;-8.00;99.90;;;;;;4765293;30;20191;-81
2024/01/11 01:25:35;;;;;;;21.63;10.80;;;-7.90;99.90;;;;;;4770993;30;20295;-81
2024/01/11 01:28:01;;;;;;;20.77;10.53;;;-8.00;99.90;;;;;;4755101;30;20194;-81
2024/01/11 01:30:27;;;;;;;26.03;12.00;;;-8.00;99.90;;;;;;4771582;30;20546;-80
2024/01/11 01:32:53;;;;;;;25.00;11.07;;;-7.90;99.90;;;;;;4771435;30;20197;-81
2024/01/11 01:35:19;;;;;;;22.17;10.10;;;-7.90;99.90;;;;;;4770846;30;20249;-81
2024/01/11 01:37:45;;;;;;;21.40;10.30;;;-7.90;99.90;;;;;;4771330;30;20618;-81
2024/01/11 01:40:14;;;;;;;23.33;11.07;;;-8.00;99.90;;;;;;4770592;30;20312;-81
2024/01/11 01:42:46;;;;;;;19.80;9.83;;;-8.00;99.90;;;;;;4755161;30;20195;-80
2024/01/11 01:45:12;;;;;;;20.83;10.27;;;-8.00;99.90;;;;;;4763877;30;20278;-81
2024/01/11 01:47:40;;;;;;;21.67;10.07;;;-8.10;99.90;;;;;;4771075;30;20211;-81
2024/01/11 01:50:07;;;;;;;23.43;10.40;;;-8.10;99.90;;;;;;4770886;30;20275;-82
2024/01/11 01:52:34;;;;;;;24.50;10.97;;;-8.10;99.90;;;;;;4765846;30;20683;-81
2024/01/11 01:55:02;;;;;;;23.77;11.07;;;-8.10;99.90;;;;;;4770362;30;20181;-81
2024/01/11 01:57:30;;;;;;;20.73;10.53;;;-8.10;99.90;;;;;;4765277;30;20194;-81
2024/01/11 01:59:56;;;;;;;20.60;9.63;;;-8.10;99.90;;;;;;4753742;30;20184;-82
2024/01/11 02:02:22;;;;;;;25.67;11.53;;;-8.20;99.90;;;;;;4754783;30;20647;-81
2024/01/11 02:04:48;;;;;;;28.67;12.17;;;-8.20;99.90;;;;;;4770632;30;20298;-81
2024/01/11 02:07:15;;;;;;;22.13;11.23;;;-8.10;99.90;;;;;;4754815;30;20192;-82
2024/01/11 02:09:42;;;;;;;24.27;11.77;;;-8.10;99.90;;;;;;4770560;30;20514;-81
2024/01/11 02:12:10;;;;;;;23.93;10.50;;;-8.20;99.90;;;;;;4770693;30;20183;-81
2024/01/11 02:14:37;;;;;;;21.97;10.93;;;-8.20;99.90;;;;;;4754651;30;20259;-81
2024/01/11 02:17:03;;;;;;;21.67;10.47;;;-8.20;99.90;;;;;;4770588;30;20192;-81
2024/01/11 02:19:29;;;;;;;27.90;11.30;;;-8.20;99.90;;;;;;4754510;30;20652;-81
2024/01/11 02:21:58;;;;;;;20.93;10.90;;;-8.20;99.90;;;;;;4748380;30;20197;-81
2024/01/11 02:24:24;;;;;;;20.50;9.60;;;-8.20;99.90;;;;;;4764928;30;20753;-81
2024/01/11 02:27:01;;;;;;;23.57;10.23;;;-8.10;99.90;;;;;;4768158;30;20347;-81
2024/01/11 02:29:29;;;;;;;23.93;11.03;;;-8.20;99.90;;;;;;4746949;30;20612;-81
2024/01/11 02:32:00;;;;;;;22.73;10.23;;;-8.30;99.90;;;;;;4753684;30;20204;-82
2024/01/11 02:34:29;;;;;;;19.30;9.93;;;-8.20;99.90;;;;;;4753646;30;20197;-82
2024/01/11 02:36:55;;;;;;;19.77;9.97;;;-8.30;99.90;;;;;;4770025;30;20274;-81
2024/01/11 02:39:23;;;;;;;23.53;10.97;;;-8.30;99.90;;;;;;4769928;30;20320;-81
2024/01/11 02:41:51;;;;;;;22.63;10.47;;;-8.30;99.90;;;;;;4754126;30;20913;-82
2024/01/11 02:44:17;;;;;;;21.17;9.57;;;-8.30;99.90;;;;;;4770040;30;20283;-82
2024/01/11 02:46:43;;;;;;;18.53;10.00;;;-8.30;99.90;;;;;;4769917;30;20598;-81
2024/01/11 02:49:08;;;;;;;20.00;10.40;;;-8.20;99.90;;;;;;4769954;30;20184;-81
2024/01/11 02:51:35;;;;;;;23.07;10.53;;;-8.20;99.90;;;;;;4758570;30;20218;-81
2024/01/11 02:54:01;;;;;;;22.50;11.03;;;-8.20;99.90;;;;;;4768993;30;20221;-81
2024/01/11 02:56:27;;;;;;;22.10;10.87;;;-8.20;99.90;;;;;;4768564;30;20587;-81
2024/01/11 02:58:52;;;;;;;23.00;10.53;;;-8.10;99.90;;;;;;4768762;30;20205;-81
2024/01/11 03:01:18;;;;;;;24.73;11.20;;;-8.10;99.90;;;;;;4769988;30;20192;-81
2024/01/11 03:03:44;;;;;;;23.00;10.97;;;-8.10;99.90;;;;;;4769873;30;20580;-81
2024/01/11 03:06:10;;;;;;;23.53;10.73;;;-8.20;99.90;;;;;;4769750;30;20247;-81
2024/01/11 03:08:36;;;;;;;18.40;9.83;;;-8.20;99.90;;;;;;4768654;30;20283;-81
2024/01/11 03:11:01;;;;;;;19.47;10.07;;;-8.20;99.90;;;;;;4769415;30;20306;-81
2024/01/11 03:13:27;;;;;;;23.47;10.93;;;-8.30;99.90;;;;;;4754157;30;20688;-82
2024/01/11 03:15:57;;;;;;;24.27;10.40;;;-8.30;99.90;;;;;;4768183;30;20303;-79
2024/01/11 03:18:23;;;;;;;21.37;10.87;;;-8.40;99.90;;;;;;4764913;30;20267;-79
2024/01/11 03:20:48;;;;;;;22.87;10.70;;;-8.30;99.90;;;;;;4767528;30;20275;-79
2024/01/11 03:23:14;;;;;;;22.87;10.10;;;-8.20;99.90;;;;;;4764621;30;20679;-80
2024/01/11 03:25:40;;;;;;;20.40;10.40;;;-8.20;99.90;;;;;;4753403;30;20564;-79
2024/01/11 03:28:05;;;;;;;22.70;9.90;;;-8.30;99.90;;;;;;4753188;30;20196;-79
2024/01/11 03:30:31;;;;;;;21.17;9.60;;;-8.20;99.90;;;;;;4769553;30;20230;-79
2024/01/11 03:32:57;;;;;;;24.03;11.13;;;-8.30;99.90;;;;;;4769328;30;20194;-80
2024/01/11 03:35:23;;;;;;;22.00;11.10;;;-8.30;99.90;;;;;;4769764;30;20196;-80
2024/01/11 03:37:48;;;;;;;23.80;10.87;;;-8.30;99.90;;;;;;4753309;30;20193;-80
2024/01/11 03:40:14;;;;;;;21.60;10.20;;;-8.30;99.90;;;;;;4767631;30;20686;-80
2024/01/11 03:42:41;;;;;;;22.37;9.50;;;-8.30;99.90;;;;;;4769403;30;20196;-79
2024/01/11 03:45:07;;;;;;;22.57;11.17;;;-8.40;99.90;;;;;;4753425;30;20644;-80
2024/01/11 03:47:33;;;;;;;23.37;10.33;;;-8.30;99.90;;;;;;4753111;30;20573;-80
2024/01/11 03:49:59;;;;;;;22.67;10.60;;;-8.30;99.90;;;;;;4769498;30;20200;-80
2024/01/11 03:52:24;;;;;;;21.23;10.87;;;-8.30;99.90;;;;;;4748041;30;20248;-80
2024/01/11 03:54:50;;;;;;;21.83;10.43;;;-8.30;99.90;;;;;;5146782;24;20350;-90
2024/01/11 03:57:17;;;;;;;20.50;10.00;;;-8.30;99.90;;;;;;4754946;30;20613;-91
2024/01/11 03:59:45;;;;;;;25.23;10.80;;;-8.30;99.90;;;;;;4771362;30;20193;-91
2024/01/11 04:02:14;;;;;;;23.67;11.80;;;-8.40;99.90;;;;;;4771581;30;20196;-92
2024/01/11 04:04:41;;;;;;;19.70;10.07;;;-8.40;99.90;;;;;;4755422;30;20224;-91
2024/01/11 04:07:13;;;;;;;20.23;9.77;;;-8.40;99.90;;;;;;4755118;30;20642;-90
2024/01/11 04:09:39;;;;;;;22.63;11.20;;;-8.50;99.90;;;;;;4755435;30;20195;-92
2024/01/11 04:12:21;;;;;;;18.63;10.43;;;-8.40;99.90;;;;;;4748247;30;20196;-90
2024/01/11 04:14:47;;;;;;;25.20;11.37;;;-8.40;99.90;;;;;;4748309;30;20702;-91
2024/01/11 04:17:15;;;;;;;23.43;10.77;;;-8.40;99.90;;;;;;4771109;30;20266;-91
2024/01/11 04:19:40;;;;;;;26.87;10.83;;;-8.40;99.90;;;;;;4755047;30;20207;-91
2024/01/11 04:22:06;;;;;;;20.73;9.80;;;-8.30;99.90;;;;;;4754998;30;20201;-90
2024/01/11 04:24:42;;;;;;;22.30;9.87;;;-8.40;99.90;;;;;;4765384;30;20543;-90
2024/01/11 04:27:08;;;;;;;24.13;11.00;;;-8.30;99.90;;;;;;4769871;30;20286;-91
2024/01/11 04:29:33;;;;;;;22.67;11.60;;;-8.40;99.90;;;;;;4748076;30;20601;-91
2024/01/11 04:31:59;;;;;;;21.50;10.57;;;-8.40;99.90;;;;;;4755108;30;20287;-91
2024/01/11 04:34:25;;;;;;;23.17;10.20;;;-8.40;99.90;;;;;;4754989;30;20290;-92
2024/01/11 04:36:56;;;;;;;24.43;11.47;;;-8.50;99.90;;;;;;4755281;30;20617;-90
2024/01/11 04:39:22;;;;;;;25.37;11.17;;;-8.50;99.90;;;;;;4770524;30;20203;-90
2024/01/11 04:41:48;;;;;;;31.47;12.53;;;-8.50;99.90;;;;;;4747849;30;20342;-91
2024/01/11 04:44:14;;;;;;;22.83;11.10;;;-8.50;99.90;;;;;;4747709;30;20192;-90
2024/01/11 04:46:43;;;;;;;24.60;11.37;;;-8.50;99.90;;;;;;4758167;30;20200;-91
2024/01/11 04:49:09;;;;;;;24.67;10.53;;;-8.50;99.90;;;;;;4758120;30;20220;-91
2024/01/11 04:51:35;;;;;;;26.47;11.03;;;-8.50;99.90;;;;;;4757815;30;20246;-89
2024/01/11 04:54:01;;;;;;;24.30;12.30;;;-8.40;99.90;;;;;;4755918;30;20196;-90
2024/01/11 04:56:29;;;;;;;22.37;11.07;;;-8.50;99.90;;;;;;4752144;30;20527;-92
2024/01/11 04:58:55;;;;;;;30.83;12.07;;;-8.50;99.90;;;;;;4773706;30;20254;-91
2024/01/11 05:01:21;;;;;;;28.83;11.63;;;-8.50;99.90;;;;;;4757815;30;20195;-90
2024/01/11 05:03:49;;;;;;;29.53;12.00;;;-8.50;99.90;;;;;;4766643;30;20217;-90
2024/01/11 05:06:22;;;;;;;28.97;12.23;;;-8.50;99.90;;;;;;4769193;30;20225;-92
2024/01/11 05:08:54;;;;;;;32.60;11.50;;;-8.50;99.90;;;;;;4763853;30;20185;-90
2024/01/11 05:11:22;;;;;;;27.93;11.97;;;-8.50;99.90;;;;;;4757383;30;20632;-91
2024/01/11 05:13:48;;;;;;;35.73;11.73;;;-8.50;99.90;;;;;;4766079;30;20186;-90
2024/01/11 05:16:25;;;;;;;27.80;12.57;;;-8.40;99.90;;;;;;4766290;30;20189;-91
2024/01/11 05:18:51;;;;;;;24.80;11.67;;;-8.40;99.90;;;;;;4757535;30;20235;-91
2024/01/11 05:21:18;;;;;;;28.00;12.53;;;-8.40;99.90;;;;;;4773415;30;20705;-90
2024/01/11 05:23:44;;;;;;;26.17;11.47;;;-8.40;99.90;;;;;;4757322;30;20195;-90
2024/01/11 05:26:13;;;;;;;19.20;10.03;;;-8.40;99.90;;;;;;4750051;30;20315;-91
2024/01/11 05:28:39;;;;;;;22.63;11.43;;;-8.40;99.90;;;;;;4773314;30;20190;-91
2024/01/11 05:31:10;;;;;;;24.47;11.33;;;-8.40;99.90;;;;;;4749890;30;20214;-91
2024/01/11 05:33:35;;;;;;;22.87;10.57;;;-8.30;99.90;;;;;;4751093;30;20197;-91
2024/01/11 05:36:02;;;;;;;25.57;11.13;;;-8.30;99.90;;;;;;4769550;30;20267;-92
2024/01/11 05:38:28;;;;;;;25.57;11.83;;;-8.40;99.90;;;;;;4748623;30;20190;-91
2024/01/11 05:40:53;;;;;;;21.27;10.33;;;-8.40;99.90;;;;;;4754076;30;20192;-91
2024/01/11 05:43:19;;;;;;;24.47;11.10;;;-8.40;99.90;;;;;;4751321;30;20221;-91
2024/01/11 05:45:45;;;;;;;24.37;11.10;;;-8.40;99.90;;;;;;4773295;30;20300;-91
2024/01/11 05:48:14;;;;;;;22.40;10.90;;;-8.30;99.90;;;;;;4753498;30;20283;-91
2024/01/11 05:50:40;;;;;;;24.10;11.40;;;-8.30;99.90;;;;;;4753329;30;20203;-91
2024/01/11 05:53:09;;;;;;;24.20;10.90;;;-8.30;99.90;;;;;;4762393;30;20193;-91
2024/01/11 05:55:34;;;;;;;20.83;11.13;;;-8.20;99.90;;;;;;4767716;30;20241;-91
2024/01/11 05:58:01;;;;;;;25.20;11.97;;;-8.20;99.90;;;;;;4748340;30;20218;-89
2024/01/11 06:00:27;;;;;;;22.70;10.97;;;-8.20;99.90;;;;;;4756721;30;20194;-91
2024/01/11 06:02:53;;;;;;;28.57;12.53;;;-8.20;99.90;;;;;;4756877;30;20284;-91
2024/01/11 06:05:19;;;;;;;26.80;11.40;;;-8.20;99.90;;;;;;4756076;30;20673;-91
2024/01/11 06:07:45;;;;;;;22.63;10.90;;;-8.20;99.90;;;;;;4772369;30;20412;-91
2024/01/11 06:10:12;;;;;;;26.60;11.77;;;-8.20;99.90;;;;;;4752615;30;20198;-91
2024/01/11 06:12:38;;;;;;;24.27;11.83;;;-8.10;99.90;;;;;;4772411;30;20271;-91
2024/01/11 06:15:04;;;;;;;23.37;11.47;;;-8.10;99.90;;;;;;4772175;30;20268;-91
2024/01/11 06:17:33;;;;;;;24.63;11.37;;;-8.10;99.90;;;;;;4755460;30;20204;-90
2024/01/11 06:19:59;;;;;;;26.20;12.00;;;-8.00;99.90;;;;;;4771197;30;20530;-90
2024/01/11 06:22:24;;;;;;;25.63;12.00;;;-8.00;99.90;;;;;;4756552;30;20188;-88
2024/01/11 06:24:50;;;;;;;26.23;11.83;;;-8.00;99.90;;;;;;4756326;30;20227;-91
2024/01/11 06:27:18;;;;;;;26.47;10.60;;;-8.00;99.90;;;;;;4752401;30;20643;-90
2024/01/11 06:29:44;;;;;;;23.20;12.00;;;-8.00;99.90;;;;;;4746191;30;20311;-90
2024/01/11 06:32:09;;;;;;;29.40;12.00;;;-8.00;99.90;;;;;;4753128;30;20287;-91
2024/01/11 06:34:36;;;;;;;22.50;11.70;;;-8.00;99.90;;;;;;4752267;30;20200;-90
2024/01/11 06:37:02;;;;;;;23.47;10.97;;;-8.10;99.90;;;;;;4746610;30;20199;-90
2024/01/11 06:39:29;;;;;;;24.47;11.27;;;-8.10;99.90;;;;;;4746841;30;20267;-90
2024/01/11 06:41:55;;;;;;;24.63;10.80;;;-8.10;99.90;;;;;;4749183;30;20217;-90
2024/01/11 06:44:21;;;;;;;23.53;10.63;;;-8.10;99.90;;;;;;4771460;30;20187;-89
2024/01/11 06:46:47;;;;;;;28.40;11.53;;;-8.00;99.90;;;;;;4748270;30;20192;-91
2024/01/11 06:49:14;;;;;;;24.53;11.80;;;-8.10;99.90;;;;;;4756037;30;20195;-90
2024/01/11 06:51:39;;;;;;;30.00;14.60;;;-8.00;99.90;;;;;;4748339;30;20194;-91
2024/01/11 06:54:06;;;;;;;26.77;12.97;;;-8.00;99.90;;;;;;4764349;30;20237;-90
2024/01/11 06:56:32;;;;;;;25.50;13.00;;;-8.00;99.90;;;;;;4771600;30;20196;-91
2024/01/11 06:59:13;;;;;;;27.97;12.53;;;-8.10;99.90;;;;;;4755856;30;20194;-90
2024/01/11 07:01:39;;;;;;;24.97;12.27;;;-8.10;99.90;;;;;;4755871;30;20192;-89
2024/01/11 07:04:04;;;;;;;26.87;13.37;;;-8.10;99.90;;;;;;4755852;30;20200;-91
2024/01/11 07:06:30;;;;;;;25.23;12.23;;;-8.20;99.90;;;;;;4766243;30;20190;-88
2024/01/11 07:08:55;;;;;;;25.77;11.90;;;-8.20;99.90;;;;;;4766855;30;20220;-90
2024/01/11 07:11:21;;;;;;;22.43;10.53;;;-8.20;99.90;;;;;;4770911;30;20191;-91
2024/01/11 07:13:47;;;;;;;24.67;12.00;;;-8.20;99.90;;;;;;4755108;30;20188;-91
2024/01/11 07:16:13;;;;;;;23.40;11.83;;;-8.20;99.90;;;;;;4771522;30;20192;-90
2024/01/11 07:18:47;;;;;;;26.07;12.73;;;-8.20;99.90;;;;;;4755828;30;20538;-91
2024/01/11 07:21:20;;;;;;;25.07;11.77;;;-8.20;99.90;;;;;;4755832;30;20666;-91
2024/01/11 07:23:45;;;;;;;23.03;11.37;;;-8.20;99.90;;;;;;4755848;30;20192;-88
2024/01/11 07:26:11;;;;;;;30.70;12.93;;;-8.20;99.90;;;;;;4771277;30;20587;-90
2024/01/11 07:28:38;;;;;;;25.43;12.23;;;-8.20;99.90;;;;;;4749170;30;20195;-90
2024/01/11 07:31:03;;;;;;;26.57;13.60;;;-8.20;99.90;;;;;;4770838;30;21717;-90
2024/01/11 07:33:29;;;;;;;34.43;14.67;;;-8.20;99.90;;;;;;4766149;30;20263;-91
2024/01/11 07:35:55;;;;;;;54.43;22.80;;;-8.20;99.90;;;;;;4753676;30;20537;-90
2024/01/11 07:38:23;;;;;;;27.93;13.30;;;-8.20;99.90;;;;;;4743844;30;20216;-90
2024/01/11 07:40:49;;;;;;;25.27;12.57;;;-8.10;99.90;;;;;;4752900;30;20188;-90
2024/01/11 07:43:14;;;;;;;27.00;12.70;;;-8.10;99.90;;;;;;4771144;30;20510;-88
2024/01/11 07:45:40;;;;;;;25.60;12.40;;;-8.00;99.90;;;;;;4764183;30;20247;-89
2024/01/11 07:48:07;;;;;;;30.50;12.37;;;-8.00;99.90;;;;;;4747569;30;20859;-88
2024/01/11 07:50:33;;;;;;;24.90;12.33;;;-7.90;99.90;;;;;;4749181;30;20698;-88
2024/01/11 07:52:58;;;;;;;26.10;10.97;;;-7.90;99.90;;;;;;4769541;30;20271;-88
2024/01/11 07:55:24;;;;;;;26.17;12.63;;;-7.90;99.90;;;;;;4750089;30;20244;-89
2024/01/11 07:57:50;;;;;;;26.00;11.87;;;-7.90;99.90;;;;;;4768641;30;20271;-90
2024/01/11 08:00:17;;;;;;;26.17;12.00;;;-7.90;99.90;;;;;;4755121;30;20199;-88
2024/01/11 08:02:42;;;;;;;27.50;12.13;;;-7.80;99.90;;;;;;4755043;30;20203;-85
2024/01/11 08:05:08;;;;;;;27.57;12.67;;;-7.80;99.90;;;;;;4747431;30;20687;-85
2024/01/11 08:07:35;;;;;;;26.40;12.23;;;-7.90;99.90;;;;;;4770897;30;20195;-85
2024/01/11 08:10:03;;;;;;;25.80;11.73;;;-7.80;99.90;;;;;;4766463;30;20654;-85
2024/01/11 08:12:29;;;;;;;21.67;11.83;;;-7.80;99.90;;;;;;4747243;30;20228;-87
2024/01/11 08:14:55;;;;;;;25.57;12.57;;;-7.70;99.90;;;;;;4754767;30;20705;-86
2024/01/11 08:17:21;;;;;;;29.23;12.57;;;-7.70;99.90;;;;;;4754887;30;20215;-86
2024/01/11 08:19:50;;;;;;;26.17;12.37;;;-7.60;99.90;;;;;;4752825;30;20194;-87
2024/01/11 08:22:16;;;;;;;25.77;12.97;;;-7.60;99.90;;;;;;4770526;30;20189;-86
2024/01/11 08:24:42;;;;;;;29.23;12.83;;;-7.60;99.90;;;;;;4754630;30;20556;-86
2024/01/11 08:27:07;;;;;;;23.60;12.50;;;-7.50;99.90;;;;;;4757995;30;20192;-87
2024/01/11 08:29:33;;;;;;;27.20;12.63;;;-7.50;99.90;;;;;;4768212;30;20182;-87
2024/01/11 08:32:01;;;;;;;27.83;12.43;;;-7.50;99.90;;;;;;4773160;30;20197;-88
2024/01/11 08:34:26;;;;;;;27.57;11.90;;;-7.40;99.90;;;;;;4774338;30;20578;-86
2024/01/11 08:36:52;;;;;;;27.23;12.13;;;-7.40;99.90;;;;;;4758324;30;20295;-87
2024/01/11 08:39:21;;;;;;;25.30;12.67;;;-7.40;99.90;;;;;;4753455;30;20192;-86
2024/01/11 08:41:46;;;;;;;27.90;12.47;;;-7.30;99.90;;;;;;4772284;30;20227;-87
2024/01/11 08:44:12;;;;;;;25.50;12.67;;;-7.30;99.90;;;;;;4748281;30;20465;-86
2024/01/11 08:46:38;;;;;;;27.10;12.27;;;-7.20;99.90;;;;;;4758167;30;20199;-86
2024/01/11 08:49:05;;;;;;;25.93;12.03;;;-7.20;99.90;;;;;;4757791;30;20190;-87
2024/01/11 08:51:34;;;;;;;25.70;11.90;;;-7.10;99.90;;;;;;4757968;30;20191;-85
2024/01/11 08:53:59;;;;;;;25.20;11.87;;;-7.10;99.90;;;;;;4773616;30;20241;-86
2024/01/11 08:56:25;;;;;;;27.53;11.73;;;-7.10;99.90;;;;;;4757721;30;20195;-85
2024/01/11 08:58:51;;;;;;;26.93;13.07;;;-7.10;99.90;;;;;;4757970;30;20229;-84
2024/01/11 09:01:20;;;;;;;23.93;11.20;;;-7.00;99.90;;;;;;4757933;30;20184;-85
2024/01/11 09:03:52;;;;;;;25.33;12.30;;;-7.00;99.90;;;;;;4766760;30;20189;-86
2024/01/11 09:06:18;;;;;;;54.87;22.83;;;-7.00;99.90;;;;;;4774048;30;20689;-84
2024/01/11 09:08:43;;;;;;;41.93;17.33;;;-6.90;99.90;;;;;;4753840;30;20193;-86
2024/01/11 09:11:12;;;;;;;46.47;19.97;;;-7.00;99.90;;;;;;4757309;30;20211;-85
2024/01/11 09:13:38;;;;;;;64.00;28.17;;;-7.00;99.90;;;;;;4757894;30;20199;-85
2024/01/11 09:16:04;;;;;;;40.93;20.13;;;-6.90;99.90;;;;;;4757711;30;20696;-86
2024/01/11 09:18:30;;;;;;;31.37;16.67;;;-6.90;99.90;;;;;;4757838;30;20196;-86
2024/01/11 09:20:57;;;;;;;23.37;12.20;;;-6.80;99.90;;;;;;4750384;30;20197;-86
2024/01/11 09:23:23;;;;;;;19.73;10.90;;;-6.80;99.90;;;;;;4773744;30;20198;-87
2024/01/11 09:25:49;;;;;;;24.17;11.73;;;-6.70;99.90;;;;;;4757143;30;20223;-88
2024/01/11 09:28:15;;;;;;;26.37;12.93;;;-6.60;99.90;;;;;;4750352;30;20221;-87
2024/01/11 09:30:40;;;;;;;30.60;12.60;;;-6.50;99.90;;;;;;4757209;30;20245;-85
2024/01/11 09:33:06;;;;;;;26.90;12.90;;;-6.50;99.90;;;;;;4757573;30;20632;-86
2024/01/11 09:35:32;;;;;;;27.63;12.83;;;-6.40;99.90;;;;;;4757617;30;20199;-87
2024/01/11 09:37:58;;;;;;;25.27;12.97;;;-6.30;99.90;;;;;;4749737;30;20195;-87
2024/01/11 09:40:24;;;;;;;31.00;13.47;;;-6.20;99.90;;;;;;4752865;30;20223;-86
2024/01/11 09:42:49;;;;;;;24.53;12.47;;;-6.10;99.90;;;;;;4756886;30;20192;-88
2024/01/11 09:45:17;;;;;;;27.73;12.90;;;-6.10;99.90;;;;;;4753087;30;20585;-87
2024/01/11 09:47:47;;;;;;;30.33;13.40;;;-5.90;99.90;;;;;;4754178;30;20287;-87
2024/01/11 09:50:21;;;;;;;25.93;12.87;;;-5.90;99.90;;;;;;4750039;30;20196;-86
2024/01/11 09:52:50;;;;;;;28.03;13.43;;;-5.80;99.90;;;;;;4772851;30;20182;-86
2024/01/11 09:55:17;;;;;;;30.50;12.57;;;-5.80;99.90;;;;;;4753949;30;20244;-86
2024/01/11 09:57:51;;;;;;;31.80;14.53;;;-5.70;99.90;;;;;;4757203;30;20197;-87
2024/01/11 10:00:24;;;;;;;27.97;13.10;;;-5.60;99.90;;;;;;4757347;30;20203;-86
2024/01/11 10:02:50;;;;;;;26.73;13.20;;;-5.50;99.90;;;;;;4756523;30;20222;-87
2024/01/11 10:05:18;;;;;;;30.67;14.33;;;-5.50;99.90;;;;;;4752894;30;20229;-86
2024/01/11 10:07:45;;;;;;;28.93;14.33;;;-5.40;99.90;;;;;;4753613;30;20190;-86
2024/01/11 10:10:15;;;;;;;28.70;13.70;;;-5.20;99.90;;;;;;4746020;30;20205;-88
2024/01/11 10:12:41;;;;;;;29.30;13.40;;;-5.20;99.90;;;;;;4750101;30;20203;-87
2024/01/11 10:15:09;;;;;;;31.67;13.43;;;-5.10;99.90;;;;;;4764198;30;20526;-87
2024/01/11 10:17:40;;;;;;;27.90;13.83;;;-5.00;99.90;;;;;;4756261;30;20194;-88
2024/01/11 10:20:10;;;;;;;30.90;14.37;;;-5.00;99.90;;;;;;4772520;30;20188;-87
2024/01/11 10:22:36;;;;;;;29.77;14.23;;;-5.00;99.90;;;;;;4756565;30;20195;-86
2024/01/11 10:25:12;;;;;;;28.13;13.57;;;-4.90;99.90;;;;;;4756075;30;20294;-86
2024/01/11 10:27:43;;;;;;;27.87;13.27;;;-4.80;99.90;;;;;;4756401;30;20184;-87
2024/01/11 10:30:15;;;;;;;29.80;13.50;;;-4.70;99.90;;;;;;4749383;30;20206;-86
2024/01/11 10:32:41;;;;;;;28.27;13.63;;;-4.80;99.90;;;;;;4749917;30;20781;-87
2024/01/11 10:35:07;;;;;;;30.40;13.93;;;-4.80;99.90;;;;;;4748868;30;20234;-88
2024/01/11 10:37:33;;;;;;;27.43;13.23;;;-4.80;99.90;;;;;;4772284;30;20595;-87
2024/01/11 10:40:12;;;;;;;26.43;13.10;;;-4.70;99.90;;;;;;4752119;30;20192;-86
2024/01/11 10:42:59;;;;;;;30.43;13.40;;;-4.70;99.90;;;;;;4755910;30;20699;-87
2024/01/11 10:45:26;;;;;;;27.60;12.70;;;-4.60;99.90;;;;;;4767622;30;20223;-88
2024/01/11 10:48:05;;;;;;;25.27;13.13;;;-4.60;99.90;;;;;;4754158;30;20220;-87
2024/01/11 10:50:49;;;;;;;42.80;13.50;;;-4.50;99.90;;;;;;4751155;30;20196;-87
2024/01/11 10:53:41;;;;;;;28.70;13.37;;;-4.50;99.90;;;;;;4757659;30;20191;-87
2024/01/11 10:56:07;;;;;;;30.37;13.67;;;-4.50;99.90;;;;;;4755941;30;20243;-87
2024/01/11 10:58:35;;;;;;;31.47;13.23;;;-4.40;99.90;;;;;;4772226;30;20192;-87
2024/01/11 11:01:04;;;;;;;31.67;14.10;;;-4.30;99.90;;;;;;4756035;30;20201;-87
2024/01/11 11:03:33;;;;;;;31.60;13.90;;;-4.20;99.90;;;;;;4756109;30;20571;-87
2024/01/11 11:06:00;;;;;;;27.93;13.20;;;-4.30;99.90;;;;;;4755962;30;20237;-87
2024/01/11 11:08:27;;;;;;;36.43;15.90;;;-4.20;99.90;;;;;;4747239;30;20206;-88
2024/01/11 11:10:57;;;;;;;31.60;13.10;;;-4.20;99.90;;;;;;4753691;30;20643;-87
2024/01/11 11:13:23;;;;;;;30.50;14.43;;;-4.10;99.90;;;;;;4756183;30;20265;-88
2024/01/11 11:15:49;;;;;;;31.90;14.00;;;-4.10;99.90;;;;;;4756292;30;20196;-88
2024/01/11 11:18:16;;;;;;;30.30;12.67;;;-3.90;99.90;;;;;;4756104;30;20191;-88
2024/01/11 11:20:42;;;;;;;27.43;13.17;;;-3.90;99.90;;;;;;4755813;30;20195;-88
2024/01/11 11:23:17;;;;;;;32.13;13.73;;;-3.80;99.90;;;;;;4756093;30;20198;-87
2024/01/11 11:25:45;;;;;;;28.97;12.43;;;-3.80;99.90;;;;;;4748516;30;20236;-88
2024/01/11 11:28:15;;;;;;;34.93;13.23;;;-3.70;99.90;;;;;;4734373;30;20189;-88
2024/01/11 11:30:42;;;;;;;25.07;11.87;;;-3.80;99.90;;;;;;4762261;30;20243;-89
2024/01/11 11:33:11;;;;;;;36.60;13.73;;;-3.80;99.90;;;;;;4755905;30;20258;-89
2024/01/11 11:35:37;;;;;;;34.90;13.27;;;-3.80;99.90;;;;;;4771665;30;20670;-88
2024/01/11 11:38:05;;;;;;;30.63;13.83;;;-3.90;99.90;;;;;;4755834;30;20199;-88
2024/01/11 11:40:39;;;;;;;26.37;13.33;;;-3.90;99.90;;;;;;4751223;30;20245;-88
2024/01/11 11:43:06;;;;;;;30.50;13.63;;;-3.90;99.90;;;;;;4748849;30;20627;-91
2024/01/11 11:45:32;;;;;;;30.97;14.33;;;-3.90;99.90;;;;;;4755894;30;20226;-88
2024/01/11 11:47:58;;;;;;;32.43;13.43;;;-3.90;99.90;;;;;;4754360;30;20194;-89
2024/01/11 11:50:24;;;;;;;34.90;14.70;;;-3.80;99.90;;;;;;4766060;30;20267;-88
2024/01/11 11:52:57;;;;;;;29.30;13.47;;;-3.80;99.90;;;;;;4755908;30;20196;-89
2024/01/11 11:55:25;;;;;;;28.63;13.03;;;-3.80;99.90;;;;;;4758597;30;20572;-89
2024/01/11 11:57:52;;;;;;;24.03;12.60;;;-3.70;99.90;;;;;;4767217;30;20714;-89
2024/01/11 12:00:17;;;;;;;27.80;13.87;;;-3.70;99.90;;;;;;4753091;30;20318;-89
2024/01/11 12:02:44;;;;;;;28.43;13.33;;;-3.80;99.90;;;;;;4775187;30;20188;-89
2024/01/11 12:05:09;;;;;;;27.73;12.60;;;-3.70;99.90;;;;;;4772420;30;20296;-89
2024/01/11 12:07:35;;;;;;;27.43;13.03;;;-3.50;99.90;;;;;;4770876;30;20265;-89
2024/01/11 12:10:01;;;;;;;27.10;13.90;;;-3.50;99.90;;;;;;4751732;30;20188;-89
2024/01/11 12:12:28;;;;;;;25.47;12.50;;;-3.40;99.90;;;;;;4774657;30;20192;-89
2024/01/11 12:14:54;;;;;;;28.17;13.67;;;-3.30;99.90;;;;;;4759113;30;20264;-89
2024/01/11 12:17:20;;;;;;;32.13;14.00;;;-3.30;99.90;;;;;;4774920;30;20650;-89
2024/01/11 12:19:45;;;;;;;26.73;12.87;;;-3.20;99.90;;;;;;4759109;30;20186;-89
2024/01/11 12:22:19;;;;;;;26.90;13.67;;;-3.30;99.90;;;;;;4757398;30;20194;-89
2024/01/11 12:24:46;;;;;;;25.10;12.57;;;-3.30;99.90;;;;;;4755746;30;20300;-89
2024/01/11 12:27:12;;;;;;;32.83;13.23;;;-3.30;99.90;;;;;;4758869;30;20654;-88